Time;durP1;ratioP1;P1;durP2;ratioP2;P2;SDS_P1;SDS_P2;PMS_P1;PMS_P2;Temp;Humidity;BMP_temperature;BMP_pressure;BME280_temperature;BME280_humidity;BME280_pressure;Samples;Min_cycle;Max_cycle;Signal;HPM_P1;HPM_P2
2021/10/16 00:00:45;;;;;;;4.63;4.10;;;12.20;37.80;;;;;;10365347;28;20226;-77
2021/10/16 00:05:49;;;;;;;4.70;4.30;;;12.10;38.30;;;;;;10372013;28;20237;-77
2021/10/16 00:10:52;;;;;;;4.93;4.37;;;12.20;38.20;;;;;;10373478;28;20226;-76
2021/10/16 00:15:57;;;;;;;4.50;4.10;;;12.20;38.30;;;;;;10365525;28;20233;-77
2021/10/16 00:21:01;;;;;;;4.50;4.10;;;12.20;38.70;;;;;;10373763;28;20226;-76
2021/10/16 00:26:04;;;;;;;4.97;4.47;;;12.20;38.40;;;;;;10338554;28;20696;-77
2021/10/16 00:31:08;;;;;;;4.93;4.43;;;12.20;38.40;;;;;;10370476;28;20237;-77
2021/10/16 00:36:12;;;;;;;4.90;4.50;;;12.20;38.80;;;;;;10367599;28;20237;-77
2021/10/16 00:41:15;;;;;;;4.73;4.33;;;12.20;38.60;;;;;;10364127;28;20222;-76
2021/10/16 00:46:19;;;;;;;4.40;4.00;;;12.20;38.60;;;;;;10370339;28;20226;-77
2021/10/16 00:51:23;;;;;;;4.40;4.00;;;12.30;39.00;;;;;;10369129;28;20243;-77
2021/10/16 00:56:26;;;;;;;5.33;4.17;;;12.30;38.80;;;;;;10361235;28;20230;-76
2021/10/16 01:01:32;;;;;;;4.53;3.90;;;12.30;38.80;;;;;;10362192;28;20234;-77
2021/10/16 01:06:37;;;;;;;4.23;3.80;;;12.30;39.20;;;;;;10361493;28;20238;-77
2021/10/16 01:11:50;;;;;;;4.87;4.00;;;12.20;38.90;;;;;;10368772;28;20687;-77
2021/10/16 01:16:57;;;;;;;4.60;4.20;;;12.20;39.70;;;;;;10373568;28;20222;-77
2021/10/16 01:22:02;;;;;;;4.57;4.00;;;12.10;39.40;;;;;;10364725;28;20222;-76
2021/10/16 01:27:06;;;;;;;4.30;3.90;;;12.10;39.60;;;;;;10373052;28;20234;-77
2021/10/16 01:32:10;;;;;;;4.53;4.13;;;12.10;39.20;;;;;;10366729;28;20230;-77
2021/10/16 01:37:14;;;;;;;4.47;3.83;;;12.10;39.30;;;;;;10364930;28;20234;-75
2021/10/16 01:42:17;;;;;;;4.77;4.10;;;12.20;39.60;;;;;;10364998;28;20729;-75
2021/10/16 01:47:20;;;;;;;4.30;3.90;;;12.20;39.40;;;;;;10364061;28;20744;-75
2021/10/16 01:52:25;;;;;;;4.10;3.80;;;12.20;39.30;;;;;;10366516;28;20230;-75
2021/10/16 01:57:28;;;;;;;4.20;3.80;;;12.20;39.50;;;;;;10369484;28;20309;-75
2021/10/16 02:02:31;;;;;;;4.63;4.20;;;12.20;39.30;;;;;;10362992;28;20238;-75
2021/10/16 02:07:36;;;;;;;4.50;4.10;;;12.10;39.40;;;;;;10370461;28;20324;-75
2021/10/16 02:12:40;;;;;;;4.93;4.50;;;12.10;39.80;;;;;;10357900;28;20242;-75
2021/10/16 02:17:43;;;;;;;4.47;4.07;;;12.10;39.70;;;;;;10366254;28;20925;-75
2021/10/16 02:22:48;;;;;;;4.67;4.27;;;12.10;39.80;;;;;;10373777;28;20240;-75
2021/10/16 02:27:51;;;;;;;4.90;4.20;;;12.20;40.10;;;;;;10365650;28;20624;-75
2021/10/16 02:32:54;;;;;;;4.00;3.70;;;12.10;39.80;;;;;;10371738;28;20257;-75
2021/10/16 02:37:58;;;;;;;4.63;4.20;;;12.20;39.90;;;;;;10363596;28;20742;-75
2021/10/16 02:43:03;;;;;;;4.03;3.73;;;12.20;40.40;;;;;;10358787;28;20575;-74
2021/10/16 02:48:06;;;;;;;4.80;4.23;;;12.30;40.00;;;;;;10358552;28;20730;-75
2021/10/16 02:53:11;;;;;;;4.33;3.93;;;12.30;40.00;;;;;;10362778;28;20593;-76
2021/10/16 02:58:14;;;;;;;4.43;4.03;;;12.30;40.40;;;;;;10369694;28;20268;-75
2021/10/16 03:03:17;;;;;;;4.57;4.17;;;12.40;40.10;;;;;;10363162;28;20304;-76
2021/10/16 03:08:23;;;;;;;4.57;4.07;;;12.40;40.00;;;;;;10361392;28;20236;-75
2021/10/16 03:13:26;;;;;;;4.87;4.47;;;12.40;40.40;;;;;;10360922;28;20226;-74
2021/10/16 03:18:29;;;;;;;4.50;4.10;;;12.40;40.10;;;;;;10362166;28;20725;-75
2021/10/16 03:23:34;;;;;;;3.60;3.30;;;12.50;40.30;;;;;;10369713;28;20244;-76
2021/10/16 03:28:39;;;;;;;4.63;4.23;;;12.50;40.30;;;;;;10357716;28;20233;-76
2021/10/16 03:33:42;;;;;;;4.43;4.07;;;12.50;40.50;;;;;;10366127;28;20228;-76
2021/10/16 03:38:47;;;;;;;4.53;4.10;;;12.50;40.90;;;;;;10370881;28;20608;-76
2021/10/16 03:43:50;;;;;;;4.80;4.40;;;12.50;40.40;;;;;;10362285;28;20227;-75
2021/10/16 03:48:54;;;;;;;6.03;4.13;;;12.50;40.10;;;;;;10360936;28;20230;-75
2021/10/16 03:53:58;;;;;;;4.93;4.53;;;12.50;40.20;;;;;;10374612;28;20222;-76
2021/10/16 03:59:02;;;;;;;4.30;3.97;;;12.50;40.40;;;;;;10366846;28;20227;-75
2021/10/16 04:04:05;;;;;;;4.50;4.20;;;12.50;40.20;;;;;;10369902;28;20219;-75
2021/10/16 04:09:10;;;;;;;4.53;4.13;;;12.50;40.30;;;;;;10367078;28;20272;-76
2021/10/16 04:14:14;;;;;;;4.77;4.37;;;12.50;40.60;;;;;;10363794;28;20269;-75
2021/10/16 04:19:17;;;;;;;4.47;4.07;;;12.60;40.50;;;;;;10359757;28;20225;-76
2021/10/16 04:24:21;;;;;;;4.03;3.67;;;12.50;40.40;;;;;;10373545;28;20990;-76
2021/10/16 04:29:25;;;;;;;4.77;4.37;;;12.60;40.80;;;;;;10367293;28;20234;-75
2021/10/16 04:34:28;;;;;;;4.67;4.27;;;12.60;40.50;;;;;;10375225;28;20234;-75
2021/10/16 04:39:32;;;;;;;4.07;3.77;;;12.60;40.50;;;;;;10366459;28;20238;-73
2021/10/16 04:44:36;;;;;;;4.60;4.20;;;12.60;40.80;;;;;;10365872;28;20608;-76
2021/10/16 04:49:40;;;;;;;5.03;4.53;;;12.60;40.70;;;;;;10371340;28;20230;-75
2021/10/16 04:54:45;;;;;;;4.40;4.00;;;12.60;40.50;;;;;;10360980;28;20234;-75
2021/10/16 04:59:48;;;;;;;4.60;4.20;;;12.60;40.60;;;;;;10361597;28;20231;-76
2021/10/16 05:04:52;;;;;;;6.17;5.37;;;12.50;40.30;;;;;;10359030;28;20226;-75
2021/10/16 05:09:56;;;;;;;5.63;5.13;;;12.50;40.40;;;;;;10364001;28;20707;-74
2021/10/16 05:15:00;;;;;;;5.67;5.17;;;12.50;40.40;;;;;;10361635;28;20218;-75
2021/10/16 05:20:04;;;;;;;4.40;4.03;;;12.50;40.20;;;;;;10362074;28;20219;-75
2021/10/16 05:25:10;;;;;;;4.00;3.70;;;12.50;40.10;;;;;;10362857;28;20233;-75
2021/10/16 05:30:13;;;;;;;5.57;5.07;;;12.50;40.10;;;;;;10359868;28;20219;-75
2021/10/16 05:35:17;;;;;;;3.93;3.60;;;12.40;39.80;;;;;;10361990;28;20226;-76
2021/10/16 05:40:22;;;;;;;5.37;4.97;;;12.40;39.90;;;;;;10367237;28;20213;-75
2021/10/16 05:45:26;;;;;;;5.73;4.40;;;12.30;39.90;;;;;;10363524;28;20726;-76
2021/10/16 05:50:30;;;;;;;4.07;3.77;;;12.30;39.70;;;;;;10361452;28;20233;-76
2021/10/16 05:55:35;;;;;;;4.50;4.07;;;12.20;39.70;;;;;;10369407;28;20238;-76
2021/10/16 06:00:38;;;;;;;5.90;5.40;;;12.20;39.80;;;;;;10363392;28;20245;-76
2021/10/16 06:05:41;;;;;;;5.57;5.10;;;12.20;39.80;;;;;;10369038;28;20272;-76
2021/10/16 06:10:51;;;;;;;6.10;5.60;;;12.10;39.80;;;;;;10365195;28;20222;-77
2021/10/16 06:16:00;;;;;;;6.50;5.67;;;12.10;40.20;;;;;;10354562;28;20248;-76
2021/10/16 06:21:04;;;;;;;6.20;5.70;;;12.10;40.00;;;;;;10363144;28;20687;-76
2021/10/16 06:26:09;;;;;;;5.20;4.70;;;12.10;40.10;;;;;;10365004;28;20245;-77
2021/10/16 06:31:12;;;;;;;5.33;4.90;;;12.10;40.30;;;;;;10365179;28;20308;-76
2021/10/16 06:36:15;;;;;;;3.83;3.53;;;12.20;40.40;;;;;;10369185;28;20698;-76
2021/10/16 06:41:21;;;;;;;4.73;4.23;;;12.20;40.50;;;;;;10373677;28;20236;-76
2021/10/16 06:46:24;;;;;;;5.30;4.90;;;12.20;41.10;;;;;;10361680;28;20226;-76
2021/10/16 06:51:27;;;;;;;5.20;4.80;;;12.20;40.70;;;;;;10365432;28;20257;-77
2021/10/16 06:56:32;;;;;;;5.67;5.07;;;12.20;40.80;;;;;;10362515;28;20744;-76
2021/10/16 07:01:35;;;;;;;5.07;4.67;;;12.20;41.20;;;;;;10362920;28;20234;-76
2021/10/16 07:06:39;;;;;;;5.17;4.67;;;12.30;40.90;;;;;;10359923;28;20234;-77
2021/10/16 07:11:46;;;;;;;5.17;4.77;;;12.30;41.10;;;;;;10361892;28;20289;-77
2021/10/16 07:16:50;;;;;;;5.00;4.53;;;12.30;41.20;;;;;;10370463;28;20316;-76
2021/10/16 07:21:53;;;;;;;4.27;3.87;;;12.30;41.00;;;;;;10371088;28;20226;-77
2021/10/16 07:26:57;;;;;;;5.83;4.03;;;12.30;40.90;;;;;;10368428;28;20241;-76
2021/10/16 07:32:01;;;;;;;4.67;4.20;;;12.40;41.30;;;;;;10364523;28;20232;-77
2021/10/16 07:37:04;;;;;;;4.47;3.90;;;12.40;41.30;;;;;;10364445;28;20233;-75
2021/10/16 07:42:09;;;;;;;4.50;3.90;;;12.50;41.50;;;;;;10366478;28;20678;-76
2021/10/16 07:47:13;;;;;;;4.03;3.60;;;12.60;42.10;;;;;;10368334;28;20222;-77
2021/10/16 07:52:16;;;;;;;4.30;3.90;;;12.70;41.70;;;;;;10356580;28;20312;-76
2021/10/16 07:57:21;;;;;;;4.83;4.10;;;12.80;41.60;;;;;;10353499;28;20265;-77
2021/10/16 08:02:24;;;;;;;4.43;3.67;;;13.00;41.90;;;;;;10366023;28;20233;-77
2021/10/16 08:07:28;;;;;;;4.10;3.70;;;13.10;41.80;;;;;;10378549;28;20258;-77
2021/10/16 08:12:32;;;;;;;4.87;3.50;;;13.30;41.80;;;;;;10385152;28;20230;-76
2021/10/16 08:17:36;;;;;;;3.83;3.53;;;13.40;41.70;;;;;;10375468;28;20610;-77
2021/10/16 08:22:42;;;;;;;3.43;3.17;;;13.60;41.60;;;;;;10378514;28;20236;-77
2021/10/16 08:27:48;;;;;;;2.97;2.77;;;13.80;41.50;;;;;;10370710;28;20643;-77
2021/10/16 08:32:51;;;;;;;4.97;3.27;;;13.90;41.30;;;;;;10372222;28;20990;-77
2021/10/16 08:37:54;;;;;;;3.67;3.20;;;14.10;41.50;;;;;;10367279;28;20241;-77
2021/10/16 08:42:59;;;;;;;3.07;2.80;;;14.20;41.30;;;;;;10370844;28;20237;-77
2021/10/16 08:48:05;;;;;;;2.97;2.70;;;14.40;41.00;;;;;;10363024;28;20690;-76
2021/10/16 08:53:08;;;;;;;3.17;2.53;;;14.60;41.00;;;;;;10368366;28;20234;-76
2021/10/16 08:58:12;;;;;;;2.97;2.77;;;14.80;41.00;;;;;;10371011;28;20706;-77
2021/10/16 09:03:18;;;;;;;3.97;2.60;;;14.90;40.70;;;;;;10367400;28;20254;-77
2021/10/16 09:08:29;;;;;;;3.17;2.87;;;15.10;40.60;;;;;;10362432;28;20270;-77
2021/10/16 09:13:43;;;;;;;2.83;2.40;;;15.20;40.30;;;;;;10370989;28;20238;-77
2021/10/16 09:18:54;;;;;;;2.80;2.60;;;15.40;40.30;;;;;;10369074;28;20230;-77
2021/10/16 09:24:04;;;;;;;2.37;2.17;;;15.60;40.30;;;;;;10368132;28;20222;-77
2021/10/16 09:29:11;;;;;;;2.90;2.60;;;15.70;39.90;;;;;;10366492;28;20226;-76
2021/10/16 09:34:21;;;;;;;2.33;2.13;;;15.90;40.00;;;;;;10365709;28;20618;-76
2021/10/16 09:39:24;;;;;;;2.23;1.83;;;16.10;40.10;;;;;;10365054;28;20238;-76
2021/10/16 09:44:31;;;;;;;1.87;1.70;;;16.30;39.40;;;;;;10365598;28;20218;-76
2021/10/16 09:49:37;;;;;;;1.90;1.70;;;16.40;38.70;;;;;;10370300;28;20238;-75
2021/10/16 09:54:41;;;;;;;2.37;1.87;;;16.50;38.80;;;;;;10371004;28;20234;-75
2021/10/16 09:59:46;;;;;;;2.10;1.90;;;16.60;39.10;;;;;;10369609;28;20588;-76
2021/10/16 10:04:50;;;;;;;3.13;2.00;;;16.80;38.70;;;;;;10356924;28;20233;-76
2021/10/16 10:09:53;;;;;;;2.23;2.03;;;16.90;39.00;;;;;;10363898;28;20244;-76
2021/10/16 10:14:58;;;;;;;1.70;1.60;;;17.10;38.90;;;;;;10367370;28;20926;-77
2021/10/16 10:20:03;;;;;;;2.00;1.80;;;17.20;38.00;;;;;;10371453;28;20226;-77
2021/10/16 10:25:23;;;;;;;2.13;1.97;;;17.40;37.90;;;;;;10365472;28;20594;-76
2021/10/16 10:30:42;;;;;;;1.80;1.70;;;17.50;36.70;;;;;;10371589;28;20230;-77
2021/10/16 10:35:49;;;;;;;1.70;1.60;;;17.60;36.70;;;;;;10364292;28;20227;-77
2021/10/16 10:41:30;;;;;;;1.73;1.63;;;17.70;36.70;;;;;;10358091;28;20226;-77
2021/10/16 10:46:35;;;;;;;1.53;1.43;;;17.90;36.80;;;;;;10367838;28;20234;-76
2021/10/16 10:51:39;;;;;;;1.70;1.50;;;18.00;36.70;;;;;;10366003;28;20636;-77
2021/10/16 10:56:45;;;;;;;2.40;1.60;;;18.10;37.20;;;;;;10367000;28;20230;-76
2021/10/16 11:02:01;;;;;;;1.63;1.53;;;18.30;36.90;;;;;;10365659;28;20224;-78
2021/10/16 11:07:09;;;;;;;1.80;1.70;;;18.40;35.80;;;;;;10341152;28;20222;-78
2021/10/16 11:12:14;;;;;;;3.27;1.80;;;18.50;35.30;;;;;;10322989;28;20226;-77
2021/10/16 11:17:19;;;;;;;1.70;1.60;;;18.50;36.80;;;;;;10319114;28;20227;-77
2021/10/16 11:22:24;;;;;;;1.80;1.50;;;18.50;35.20;;;;;;10322218;28;20594;-76
2021/10/16 11:27:27;;;;;;;1.53;1.43;;;18.50;35.20;;;;;;10320864;28;20235;-76
2021/10/16 11:32:33;;;;;;;1.60;1.40;;;18.60;35.30;;;;;;10326811;28;20226;-77
2021/10/16 11:37:40;;;;;;;1.50;1.40;;;18.60;35.20;;;;;;10334195;28;20241;-76
2021/10/16 11:42:48;;;;;;;1.70;1.60;;;18.60;35.30;;;;;;10339575;28;20305;-75
2021/10/16 11:47:55;;;;;;;1.57;1.47;;;18.60;34.30;;;;;;10335299;28;20234;-75
2021/10/16 11:53:10;;;;;;;1.40;1.30;;;18.60;34.50;;;;;;10328240;28;20230;-74
2021/10/16 11:58:16;;;;;;;1.20;1.10;;;18.60;34.20;;;;;;10329749;28;20222;-75
2021/10/16 12:03:24;;;;;;;1.60;1.50;;;18.60;35.30;;;;;;10328980;28;20780;-75
2021/10/16 12:08:29;;;;;;;1.63;1.53;;;18.70;34.30;;;;;;10324698;28;20255;-75
2021/10/16 12:13:35;;;;;;;1.53;1.43;;;18.70;34.60;;;;;;10331891;28;20719;-75
2021/10/16 12:18:49;;;;;;;1.80;1.70;;;18.70;34.20;;;;;;10328106;28;20313;-76
2021/10/16 12:23:52;;;;;;;1.70;1.60;;;18.70;33.20;;;;;;10327273;28;20233;-76
2021/10/16 12:28:58;;;;;;;2.07;1.70;;;18.60;34.30;;;;;;10332409;28;20231;-75
2021/10/16 12:34:05;;;;;;;1.37;1.30;;;18.60;33.90;;;;;;10334035;28;20961;-75
2021/10/16 12:39:10;;;;;;;1.67;1.40;;;18.60;33.40;;;;;;10354028;28;20226;-76
2021/10/16 12:44:24;;;;;;;2.20;1.20;;;18.60;34.20;;;;;;10365423;28;20288;-74
2021/10/16 12:49:31;;;;;;;1.90;1.20;;;18.60;33.80;;;;;;10368758;28;20229;-75
2021/10/16 12:54:41;;;;;;;1.50;1.23;;;18.60;33.10;;;;;;10369130;28;20242;-75
2021/10/16 12:59:44;;;;;;;1.73;1.20;;;18.50;32.60;;;;;;10366858;28;20853;-75
2021/10/16 13:04:50;;;;;;;2.57;1.37;;;18.60;33.90;;;;;;10367718;28;20226;-75
2021/10/16 13:09:53;;;;;;;1.30;1.20;;;18.60;33.60;;;;;;10362553;28;20305;-75
2021/10/16 13:14:57;;;;;;;2.53;1.50;;;18.60;34.10;;;;;;10364033;28;20703;-75
2021/10/16 13:20:02;;;;;;;3.63;1.10;;;18.70;34.60;;;;;;10365229;28;20722;-76
2021/10/16 13:25:06;;;;;;;1.17;1.03;;;18.70;33.20;;;;;;10359530;28;20847;-75
2021/10/16 13:30:11;;;;;;;1.77;1.30;;;18.80;33.30;;;;;;10368983;28;20226;-76
2021/10/16 13:35:16;;;;;;;1.20;1.10;;;18.80;32.80;;;;;;10366484;28;20241;-76
2021/10/16 13:40:20;;;;;;;1.43;1.13;;;18.80;32.40;;;;;;10368191;28;20230;-76
2021/10/16 13:45:23;;;;;;;1.30;1.20;;;18.80;33.10;;;;;;10370304;28;20234;-76
2021/10/16 13:50:27;;;;;;;1.40;1.30;;;18.70;32.90;;;;;;10368352;28;20234;-76
2021/10/16 13:55:31;;;;;;;1.13;1.13;;;18.80;32.10;;;;;;10366919;28;20221;-75
2021/10/16 14:00:34;;;;;;;1.17;1.13;;;18.80;32.70;;;;;;10360703;28;20230;-74
2021/10/16 14:05:39;;;;;;;1.00;1.00;;;18.70;32.50;;;;;;10361963;28;20235;-75
2021/10/16 14:10:42;;;;;;;1.13;1.10;;;18.70;31.80;;;;;;10369334;28;20308;-75
2021/10/16 14:15:45;;;;;;;1.07;1.07;;;18.70;32.30;;;;;;10365625;28;20237;-75
2021/10/16 14:20:50;;;;;;;1.40;1.30;;;18.70;32.20;;;;;;10369545;28;20230;-75
2021/10/16 14:25:53;;;;;;;1.00;1.00;;;18.70;31.50;;;;;;10358494;28;20231;-76
2021/10/16 14:30:57;;;;;;;2.80;1.20;;;18.70;31.90;;;;;;10357827;28;20230;-76
2021/10/16 14:36:01;;;;;;;1.07;0.93;;;18.70;31.90;;;;;;10354775;28;20234;-77
2021/10/16 14:41:04;;;;;;;1.17;1.00;;;18.60;31.30;;;;;;10362097;28;20230;-75
2021/10/16 14:46:09;;;;;;;1.33;1.23;;;18.60;31.80;;;;;;10360325;28;20226;-75
2021/10/16 14:51:14;;;;;;;0.90;0.90;;;18.60;31.70;;;;;;10359471;28;20234;-76
2021/10/16 14:56:17;;;;;;;0.90;0.90;;;18.60;30.80;;;;;;10355485;28;20222;-76
2021/10/16 15:01:20;;;;;;;1.10;0.90;;;18.60;31.40;;;;;;10358628;28;20245;-76
2021/10/16 15:06:25;;;;;;;3.57;1.07;;;18.60;31.70;;;;;;10353097;28;20234;-76
2021/10/16 15:11:28;;;;;;;2.17;1.07;;;18.60;31.20;;;;;;10351371;28;20235;-76
2021/10/16 15:16:31;;;;;;;1.30;1.20;;;18.50;31.60;;;;;;10353550;28;20794;-77
2021/10/16 15:21:36;;;;;;;1.40;1.10;;;18.50;32.00;;;;;;10356596;28;20253;-76
2021/10/16 15:26:39;;;;;;;1.50;1.20;;;18.50;31.70;;;;;;10361100;28;20234;-77
2021/10/16 15:31:42;;;;;;;1.70;1.50;;;18.50;32.10;;;;;;10359424;28;20234;-77
2021/10/16 15:36:48;;;;;;;1.40;1.30;;;18.50;31.90;;;;;;10359692;28;20611;-76
2021/10/16 15:41:51;;;;;;;2.43;1.30;;;18.50;31.30;;;;;;10357370;28;20230;-77
2021/10/16 15:46:54;;;;;;;1.10;1.00;;;18.40;31.70;;;;;;10363119;28;20226;-77
2021/10/16 15:51:59;;;;;;;1.10;1.00;;;18.40;31.70;;;;;;10358943;28;20313;-75
2021/10/16 15:57:05;;;;;;;3.03;1.10;;;18.30;31.40;;;;;;10357164;28;20222;-76
2021/10/16 16:02:08;;;;;;;1.23;1.00;;;18.20;31.80;;;;;;10363196;28;20231;-74
2021/10/16 16:07:13;;;;;;;1.53;1.20;;;18.10;31.80;;;;;;10360069;28;20245;-75
2021/10/16 16:12:16;;;;;;;0.90;0.90;;;18.10;31.80;;;;;;10356764;28;20710;-75
2021/10/16 16:17:19;;;;;;;2.90;0.97;;;18.00;31.90;;;;;;10361671;28;20281;-76
2021/10/16 16:22:24;;;;;;;1.20;1.03;;;17.90;32.20;;;;;;10362627;28;20226;-76
2021/10/16 16:27:27;;;;;;;1.43;1.20;;;17.80;32.20;;;;;;10370472;28;20329;-76
2021/10/16 16:32:30;;;;;;;1.50;1.40;;;17.80;32.50;;;;;;10361592;28;20241;-76
2021/10/16 16:37:35;;;;;;;1.80;1.37;;;17.70;32.40;;;;;;10380541;28;20361;-76
2021/10/16 16:42:39;;;;;;;2.43;1.60;;;17.60;32.30;;;;;;10367637;28;20230;-76
2021/10/16 16:47:42;;;;;;;1.70;1.60;;;17.50;32.40;;;;;;10374405;28;20226;-76
2021/10/16 16:52:47;;;;;;;2.43;1.50;;;17.40;32.50;;;;;;10376624;28;20237;-76
2021/10/16 16:57:50;;;;;;;1.50;1.40;;;17.30;32.40;;;;;;10368925;28;20237;-76
2021/10/16 17:02:53;;;;;;;2.37;1.70;;;17.20;32.40;;;;;;10369024;28;20241;-76
2021/10/16 17:07:58;;;;;;;2.97;1.80;;;17.10;32.60;;;;;;10372768;28;20737;-76
2021/10/16 17:13:02;;;;;;;1.97;1.40;;;17.00;32.60;;;;;;10376248;28;20261;-76
2021/10/16 17:18:07;;;;;;;1.30;1.20;;;16.80;32.70;;;;;;10368719;28;20226;-75
2021/10/16 17:23:12;;;;;;;4.40;1.73;;;16.70;32.70;;;;;;10370321;28;20249;-76
2021/10/16 17:28:15;;;;;;;2.53;2.33;;;16.60;32.70;;;;;;10410593;28;20257;-75
2021/10/16 17:33:19;;;;;;;5.50;5.00;;;16.50;32.80;;;;;;10409452;28;20230;-75
2021/10/16 17:38:25;;;;;;;6.00;5.40;;;16.40;32.80;;;;;;10379071;28;20241;-77
2021/10/16 17:43:30;;;;;;;8.07;7.37;;;16.30;32.90;;;;;;10357732;28;20228;-76
2021/10/16 17:48:33;;;;;;;8.83;8.03;;;16.20;33.10;;;;;;10369531;28;20329;-76
2021/10/16 17:53:37;;;;;;;14.27;13.00;;;16.00;33.00;;;;;;10363576;28;20227;-79
2021/10/16 17:58:41;;;;;;;14.20;12.93;;;15.90;32.90;;;;;;10368577;28;20242;-76
2021/10/16 18:03:45;;;;;;;11.90;10.80;;;15.80;32.80;;;;;;10370959;28;20235;-78
2021/10/16 18:08:52;;;;;;;11.70;10.63;;;15.70;32.70;;;;;;10378229;28;20222;-78
2021/10/16 18:13:55;;;;;;;8.47;7.77;;;15.50;32.50;;;;;;10374618;28;20243;-78
2021/10/16 18:19:00;;;;;;;8.57;7.80;;;15.40;32.50;;;;;;10378096;28;20241;-79
2021/10/16 18:24:05;;;;;;;9.43;8.57;;;15.30;32.40;;;;;;10386233;28;20392;-78
2021/10/16 18:29:08;;;;;;;6.37;5.87;;;15.20;32.50;;;;;;10374642;28;20294;-78
2021/10/16 18:34:12;;;;;;;6.93;6.33;;;15.10;32.60;;;;;;10379399;28;20224;-81
2021/10/16 18:39:16;;;;;;;10.47;9.57;;;15.00;32.50;;;;;;10380633;28;20765;-78
2021/10/16 18:44:19;;;;;;;17.67;15.47;;;14.90;32.40;;;;;;10378600;28;20277;-79
2021/10/16 18:49:23;;;;;;;14.77;12.87;;;14.70;32.70;;;;;;10379311;28;20297;-78
2021/10/16 18:54:27;;;;;;;13.17;11.03;;;14.50;33.00;;;;;;10381431;28;20302;-78
2021/10/16 18:59:30;;;;;;;9.20;8.30;;;14.40;33.20;;;;;;10372329;28;20231;-77
2021/10/16 19:04:33;;;;;;;8.67;7.77;;;14.30;33.10;;;;;;10355774;28;21016;-78
2021/10/16 19:09:38;;;;;;;9.07;8.17;;;14.30;33.30;;;;;;10353857;28;20258;-78
2021/10/16 19:14:41;;;;;;;7.37;6.77;;;14.20;33.40;;;;;;10354609;28;20234;-77
2021/10/16 19:19:46;;;;;;;6.03;5.53;;;14.10;33.20;;;;;;10356501;28;20245;-78
2021/10/16 19:24:51;;;;;;;5.83;5.07;;;14.00;33.10;;;;;;10361224;28;20711;-77
2021/10/16 19:29:54;;;;;;;7.00;6.27;;;13.80;33.40;;;;;;10362980;28;20244;-78
2021/10/16 19:34:57;;;;;;;11.47;9.40;;;13.70;33.40;;;;;;10370688;28;20226;-78
2021/10/16 19:40:02;;;;;;;11.17;10.07;;;13.60;33.40;;;;;;10361129;28;20698;-78
2021/10/16 19:45:08;;;;;;;10.57;9.53;;;13.50;33.60;;;;;;10363527;28;20226;-77
2021/10/16 19:50:11;;;;;;;14.33;12.67;;;13.30;33.50;;;;;;10360280;28;20252;-77
2021/10/16 19:55:16;;;;;;;11.50;10.37;;;13.20;33.80;;;;;;10360540;28;20234;-77
2021/10/16 20:00:19;;;;;;;8.40;7.60;;;13.10;33.90;;;;;;10370834;28;20226;-78
2021/10/16 20:05:22;;;;;;;8.80;7.90;;;13.10;33.90;;;;;;10375438;28;20230;-78
2021/10/16 20:10:27;;;;;;;8.40;7.53;;;13.10;33.90;;;;;;10376717;28;20329;-76
2021/10/16 20:15:31;;;;;;;7.40;6.70;;;13.00;34.00;;;;;;10382598;28;20230;-78
2021/10/16 20:20:34;;;;;;;6.50;5.77;;;13.00;33.90;;;;;;10379033;28;20621;-79
2021/10/16 20:25:39;;;;;;;5.53;5.03;;;13.00;33.90;;;;;;10399657;28;20297;-77
2021/10/16 20:30:42;;;;;;;6.53;5.93;;;12.80;33.90;;;;;;10403554;28;20379;-79
2021/10/16 20:35:46;;;;;;;9.97;8.80;;;12.80;33.90;;;;;;10392029;28;20231;-79
2021/10/16 20:40:50;;;;;;;8.77;7.97;;;12.70;33.90;;;;;;10387186;28;20312;-76
2021/10/16 20:45:54;;;;;;;10.33;9.33;;;12.60;34.00;;;;;;10392833;28;20257;-78
2021/10/16 20:50:57;;;;;;;10.27;9.17;;;12.60;33.90;;;;;;10394089;28;20217;-79
2021/10/16 20:56:02;;;;;;;9.57;8.27;;;12.50;33.90;;;;;;10389344;28;20234;-77
2021/10/16 21:01:06;;;;;;;8.10;7.30;;;12.40;34.10;;;;;;10370885;28;20226;-78
2021/10/16 21:06:10;;;;;;;7.50;6.80;;;12.40;34.00;;;;;;10366428;28;20234;-77
2021/10/16 21:11:14;;;;;;;7.90;7.10;;;12.40;34.10;;;;;;10373370;28;20229;-78
2021/10/16 21:16:18;;;;;;;7.20;6.50;;;12.30;34.00;;;;;;10383153;28;20237;-78
2021/10/16 21:21:21;;;;;;;6.60;6.00;;;12.30;34.00;;;;;;10366985;28;20253;-77
2021/10/16 21:26:26;;;;;;;6.97;6.37;;;12.20;33.90;;;;;;10364510;28;20253;-78
2021/10/16 21:31:29;;;;;;;6.47;5.63;;;12.10;33.90;;;;;;10365688;28;20231;-78
2021/10/16 21:36:32;;;;;;;4.90;4.50;;;12.00;33.80;;;;;;10361904;28;20246;-78
2021/10/16 21:41:38;;;;;;;6.13;5.47;;;11.90;33.90;;;;;;10363837;28;20233;-75
2021/10/16 21:46:41;;;;;;;6.20;5.60;;;11.80;34.10;;;;;;10357514;28;21060;-75
2021/10/16 21:51:45;;;;;;;6.17;5.03;;;11.80;34.10;;;;;;10365515;28;20263;-75
2021/10/16 21:56:49;;;;;;;5.57;5.07;;;11.70;34.10;;;;;;10362304;28;20241;-75
2021/10/16 22:01:53;;;;;;;6.23;5.63;;;11.70;34.20;;;;;;10361449;28;20436;-75
2021/10/16 22:06:56;;;;;;;6.50;5.90;;;11.70;34.10;;;;;;10362144;28;20241;-75
2021/10/16 22:12:01;;;;;;;6.77;6.17;;;11.60;34.80;;;;;;10362942;28;20241;-75
2021/10/16 22:17:04;;;;;;;6.37;5.77;;;11.50;33.90;;;;;;10359492;28;20226;-75
2021/10/16 22:22:07;;;;;;;4.93;4.53;;;11.40;34.00;;;;;;10358822;28;20309;-75
2021/10/16 22:27:12;;;;;;;4.97;4.47;;;11.20;34.00;;;;;;10363487;28;20600;-75
2021/10/16 22:32:15;;;;;;;5.20;4.70;;;11.10;34.30;;;;;;10354828;28;20259;-75
2021/10/16 22:37:18;;;;;;;9.83;4.50;;;11.10;34.30;;;;;;10364916;28;20225;-75
2021/10/16 22:42:23;;;;;;;4.53;4.13;;;11.00;34.30;;;;;;10361561;28;20236;-75
2021/10/16 22:47:26;;;;;;;4.90;4.50;;;11.00;34.50;;;;;;10368116;28;20260;-75
2021/10/16 22:52:29;;;;;;;4.17;3.77;;;11.00;34.40;;;;;;10365562;28;20233;-75
2021/10/16 22:57:39;;;;;;;3.90;3.60;;;10.90;34.20;;;;;;10366150;28;20825;-74
2021/10/16 23:02:43;;;;;;;4.23;3.80;;;10.90;34.40;;;;;;10360226;28;20228;-75
2021/10/16 23:07:47;;;;;;;3.50;3.20;;;10.80;34.30;;;;;;10363265;28;20233;-75
2021/10/16 23:12:51;;;;;;;4.53;4.17;;;10.80;34.40;;;;;;10363100;28;20261;-75
2021/10/16 23:17:54;;;;;;;4.73;4.33;;;10.80;34.60;;;;;;10366237;28;20236;-75
2021/10/16 23:23:00;;;;;;;4.20;3.80;;;10.80;34.60;;;;;;10364336;28;20233;-75
2021/10/16 23:28:08;;;;;;;4.40;4.00;;;10.70;34.40;;;;;;10361369;28;20226;-76
2021/10/16 23:33:12;;;;;;;4.20;3.90;;;10.70;34.50;;;;;;10367439;28;20228;-75
2021/10/16 23:38:16;;;;;;;4.53;4.13;;;10.70;34.50;;;;;;10370505;28;20249;-75
2021/10/16 23:43:22;;;;;;;4.63;3.83;;;10.60;34.40;;;;;;10364962;28;20221;-74
2021/10/16 23:48:25;;;;;;;4.03;3.73;;;10.70;34.50;;;;;;10376238;28;20237;-75
2021/10/16 23:53:29;;;;;;;3.83;3.37;;;10.50;34.30;;;;;;10374844;28;20229;-75
2021/10/16 23:58:33;;;;;;;4.43;3.60;;;10.50;34.30;;;;;;10371472;28;20694;-76
